METAR AND TAF INFORMATION
METAR FOR EGKK
ADDS - METARS form results

(1726 UTC 18 January 2018)
Data provider http://aviationweather.gov/adds/metars/
 
METAR text: EGKK 181720Z 26010KT 9999 SCT044 06/02 Q1003
Conditions at: EGKK (LONDON/GATWICK A, GB) observed 1720 UTC 18 January 2018
Temperature: 6.0°C (43°F)
Dewpoint: 2.0°C (36°F) [RH = 75%]
Pressure (altimeter): 29.62 inches Hg (1003.0 mb)
Winds: from the W (260 degrees) at 12 MPH (10 knots; 5.2 m/s)
Visibility: 6 or more miles (10+ km)
Ceiling: at least 12,000 feet AGL
Clouds: scattered clouds at 4400 feet AGL
Weather: no significant weather observed at this time

METAR text: EGKK 181650Z 25011KT 9999 FEW028 SCT043 07/03 Q1002
Conditions at: EGKK (LONDON/GATWICK A, GB) observed 1650 UTC 18 January 2018
Temperature: 7.0°C (45°F)
Dewpoint: 3.0°C (37°F) [RH = 76%]
Pressure (altimeter): 29.59 inches Hg (1002.0 mb)
Winds: from the WSW (250 degrees) at 13 MPH (11 knots; 5.7 m/s)
Visibility: 6 or more miles (10+ km)
Ceiling: at least 12,000 feet AGL
Clouds: few clouds at 2800 feet AGL
scattered clouds at 4300 feet AGL
Weather: no significant weather observed at this time

Forecast for: EGKK (LONDON/GATWICK A, GB)
Text: TAF EGKK 181658Z 1818/1924 26012KT 9999 FEW030
Forecast period: 1800 UTC 18 January 2018 to 0000 UTC 20 January 2018
Forecast type: FROM: standard forecast or significant change
Winds: from the W (260 degrees) at 14 MPH (12 knots; 6.2 m/s)
Visibility: 6 or more miles (10+ km)
Clouds: few clouds at 3000 feet AGL
Weather: no significant weather forecast for this period
Text: PROB30
Forecast period: 1300 to 1600 UTC 19 January 2018
Forecast type: TEMPORARY: The following changes expected for less than half the time period
Visibility: 4 miles (7 km)
Weather: SHRA  (rain showers)

 AIRPORT MAP

 RUNWAY INFORMATION
Runway 08L Runway length 8415 ft Runway width 148 ft
Runway elevation 195 ft Runway displaced threshold 1053 ft Runway heading 78
Runway 26R Runway length 8415 ft Runway width 148 ft
Runway elevation 195 ft Runway displaced threshold 1366 ft Runway heading 258
Runway 08R Runway length 10364 ft Runway width 148 ft
Runway elevation 196 ft Runway displaced threshold 1288 ft Runway heading 78
Runway 26L Runway length 10364 ft Runway width 148 ft
Runway elevation 196 ft Runway displaced threshold 878 ft Runway heading 258

 AIRPORT FREQUENCIES
Type APP Name APP Frequency 126.825 MHZ
Type ATIS Name ATIS Frequency 136.525 MHZ
Type CLD Name CLNC DEL Frequency 121.95 MHZ
Type GND Name GND Frequency 121.8 MHZ
Type TWR Name TWR Frequency 124.225 MHZ

 AIRPORT NEAR NAVIGATION AIDS
Type NDB Name Gatwick Frequency 338 KHZ
Type NDB Name Gatwick Frequency 365 KHZ



v2.6.1